Terminal Aerodrome Forecast
Issued by NWS

Home | Current Version | Previous Version | Text Only | Print | Product List | Glossary On
Versions: 1 2 3 4 5 6 7 8 9 10 11 12 13 14 15 16 17 18 19 20
762
FTUS42 KTBW 070538 AAA
TAFPIE
TAF AMD
KPIE 070538Z 0706/0806 32013G17KT P6SM SCT010 BKN035
     FM070800 34016G23KT P6SM SCT020 BKN050
     FM071400 34018G25KT P6SM FEW060 SCT250
     FM072300 33013G19KT P6SM SKC
     FM080200 32009KT P6SM SKC=

USA.gov is the U.S. government's official web portal to all federal, state and local government web resources and services.